Time;durP1;ratioP1;P1;durP2;ratioP2;P2;SDS_P1;SDS_P2;PMS_P1;PMS_P2;Temp;Humidity;BMP_temperature;BMP_pressure;BME280_temperature;BME280_humidity;BME280_pressure;Samples;Min_cycle;Max_cycle;Signal;HPM_P1;HPM_P2
2023/11/24 00:00:27;;;;;;;3.30;0.25;;;;;;;;;;5045393;28;20057;-90
2023/11/24 00:03:09;;;;;;;0.10;0.10;;;;;;;;;;5033714;28;20050;-90
2023/11/24 00:05:49;;;;;;;0.40;0.40;;;;;;;;;;5035551;28;20072;-90
2023/11/24 00:08:31;;;;;;;0.00;0.00;;;;;;;;;;5044900;28;20041;-89
2023/11/24 00:11:15;;;;;;;0.10;0.10;;;;;;;;;;5043399;28;20033;-89
2023/11/24 00:13:58;;;;;;;0.00;0.00;;;;;;;;;;5029105;28;20417;-89
2023/11/24 00:16:39;;;;;;;0.10;0.10;;;;;;;;;;5044807;28;20083;-89
2023/11/24 00:19:20;;;;;;;0.08;0.08;;;;;;;;;;5040115;28;20056;-90
2023/11/24 00:22:04;;;;;;;1.70;0.73;;;;;;;;;;5043838;28;20041;-89
2023/11/24 00:25:19;;;;;;;0.10;0.10;;;;;;;;;;5033886;28;20049;-88
2023/11/24 00:28:00;;;;;;;0.10;0.10;;;;;;;;;;5019767;28;20056;-90
2023/11/24 00:30:40;;;;;;;0.03;0.03;;;;;;;;;;5047182;28;20418;-89
2023/11/24 00:33:22;;;;;;;0.00;0.00;;;;;;;;;;5043944;28;20058;-90
2023/11/24 00:36:05;;;;;;;0.03;0.03;;;;;;;;;;5046152;28;20139;-90
2023/11/24 00:38:46;;;;;;;0.10;0.10;;;;;;;;;;5046381;28;20034;-89
2023/11/24 00:41:23;;;;;;;0.15;0.15;;;;;;;;;;5045498;28;20076;-88
2023/11/24 00:44:01;;;;;;;0.00;0.00;;;;;;;;;;5043581;28;20050;-90
2023/11/24 00:46:45;;;;;;;0.10;0.10;;;;;;;;;;5043774;28;20060;-89
2023/11/24 00:49:29;;;;;;;0.00;0.00;;;;;;;;;;5043497;28;20059;-90
2023/11/24 00:51:57;;;;;;;8.77;0.65;;;;;;;;;;5042632;28;20049;-90
2023/11/24 00:54:38;;;;;;;0.10;0.10;;;;;;;;;;5042394;28;20112;-90
2023/11/24 00:57:19;;;;;;;0.20;0.20;;;;;;;;;;5027651;28;20065;-89
2023/11/24 01:00:00;;;;;;;0.00;0.00;;;;;;;;;;5042651;28;20395;-90
2023/11/24 01:02:39;;;;;;;0.03;0.03;;;;;;;;;;5028578;28;20133;-90
2023/11/24 01:05:21;;;;;;;0.10;0.10;;;;;;;;;;5028124;28;20041;-90
2023/11/24 01:08:05;;;;;;;0.08;0.08;;;;;;;;;;5041712;28;20060;-90
2023/11/24 01:10:45;;;;;;;0.03;0.03;;;;;;;;;;5042297;28;20057;-89
2023/11/24 01:13:26;;;;;;;0.00;0.00;;;;;;;;;;5042100;28;20037;-90
2023/11/24 01:16:08;;;;;;;0.10;0.10;;;;;;;;;;5027233;28;20122;-90
2023/11/24 01:18:49;;;;;;;0.03;0.03;;;;;;;;;;5042750;28;20139;-90
2023/11/24 01:21:30;;;;;;;0.00;0.00;;;;;;;;;;5041957;28;20045;-90
2023/11/24 01:24:12;;;;;;;0.10;0.10;;;;;;;;;;5042613;28;20041;-89
2023/11/24 01:26:54;;;;;;;0.00;0.00;;;;;;;;;;5042987;28;20203;-90
2023/11/24 01:29:24;;;;;;;0.00;0.00;;;;;;;;;;5042221;28;20237;-90
2023/11/24 01:32:04;;;;;;;0.10;0.10;;;;;;;;;;5039582;28;20085;-89
2023/11/24 01:34:46;;;;;;;0.00;0.00;;;;;;;;;;5040404;28;20052;-90
2023/11/24 01:37:31;;;;;;;0.73;0.10;;;;;;;;;;5041561;28;20049;-90
2023/11/24 01:40:13;;;;;;;0.08;0.08;;;;;;;;;;5041928;28;20072;-89
2023/11/24 01:42:55;;;;;;;0.32;0.25;;;;;;;;;;5040760;28;20108;-89
2023/11/24 01:45:36;;;;;;;0.70;0.08;;;;;;;;;;5043692;28;20053;-88
2023/11/24 01:48:17;;;;;;;0.00;0.00;;;;;;;;;;5045455;28;20033;-90
2023/11/24 01:50:58;;;;;;;0.10;0.10;;;;;;;;;;5047497;28;20091;-89
2023/11/24 01:53:38;;;;;;;0.00;0.00;;;;;;;;;;5044022;28;20073;-90
2023/11/24 01:56:06;;;;;;;0.03;0.03;;;;;;;;;;5044318;28;20111;-90
2023/11/24 01:58:47;;;;;;;0.00;0.00;;;;;;;;;;5041743;28;20088;-88
2023/11/24 02:01:32;;;;;;;0.10;0.10;;;;;;;;;;5042697;28;20068;-90
2023/11/24 02:04:12;;;;;;;0.10;0.10;;;;;;;;;;5034713;28;20071;-90
2023/11/24 02:06:49;;;;;;;0.15;0.15;;;;;;;;;;5052974;28;20054;-89
2023/11/24 02:09:30;;;;;;;35.40;1.65;;;;;;;;;;5036204;28;20041;-90
2023/11/24 02:12:10;;;;;;;0.10;0.10;;;;;;;;;;5052322;28;20053;-89
2023/11/24 02:14:51;;;;;;;0.00;0.00;;;;;;;;;;5051939;28;20063;-89
2023/11/24 02:22:45;;;;;;;0.00;0.00;;;;;;;;;;5028089;28;20489;-90
2023/11/24 02:25:31;;;;;;;0.00;0.00;;;;;;;;;;5044045;28;20033;-89
2023/11/24 02:28:15;;;;;;;0.40;0.32;;;;;;;;;;5093727;23;20056;-89
2023/11/24 02:31:00;;;;;;;0.35;0.35;;;;;;;;;;5028794;28;20476;-90
2023/11/24 02:33:28;;;;;;;0.10;0.10;;;;;;;;;;5042409;28;20473;-89
2023/11/24 02:36:32;;;;;;;0.10;0.10;;;;;;;;;;5050216;28;20396;-89
2023/11/24 02:39:13;;;;;;;17.00;0.90;;;;;;;;;;5043144;28;20398;-90
2023/11/24 02:44:25;;;;;;;2.72;0.85;;;;;;;;;;5025919;28;20245;-89
2023/11/24 02:46:53;;;;;;;0.32;0.32;;;;;;;;;;5046105;28;20063;-89
2023/11/24 02:49:38;;;;;;;0.10;0.10;;;;;;;;;;5029328;28;20117;-90
2023/11/24 02:52:07;;;;;;;0.10;0.10;;;;;;;;;;5043306;28;20049;-89
2023/11/24 02:54:48;;;;;;;0.35;0.05;;;;;;;;;;5043463;28;20115;-91
2023/11/24 02:57:28;;;;;;;0.10;0.10;;;;;;;;;;5044455;28;20069;-89
2023/11/24 03:00:12;;;;;;;0.00;0.00;;;;;;;;;;5044174;28;20130;-89
2023/11/24 03:02:53;;;;;;;0.00;0.00;;;;;;;;;;5031824;28;20102;-90
2023/11/24 03:05:32;;;;;;;0.10;0.10;;;;;;;;;;5044873;28;20059;-90
2023/11/24 03:08:13;;;;;;;0.10;0.10;;;;;;;;;;5045314;28;20073;-90
2023/11/24 03:10:54;;;;;;;0.10;0.10;;;;;;;;;;5044079;28;20038;-90
2023/11/24 03:13:34;;;;;;;0.00;0.00;;;;;;;;;;5047403;28;20064;-91
2023/11/24 03:16:15;;;;;;;0.00;0.00;;;;;;;;;;5048197;28;20429;-89
2023/11/24 03:18:56;;;;;;;0.00;0.00;;;;;;;;;;5045140;28;20061;-90
2023/11/24 03:21:59;;;;;;;0.00;0.00;;;;;;;;;;5045111;28;20102;-90
2023/11/24 03:24:47;;;;;;;0.10;0.10;;;;;;;;;;5047966;28;20091;-89
2023/11/24 03:27:20;;;;;;;0.10;0.10;;;;;;;;;;5046083;28;20077;-90
2023/11/24 03:29:50;;;;;;;0.10;0.10;;;;;;;;;;5047040;28;20075;-88
2023/11/24 03:32:33;;;;;;;0.10;0.10;;;;;;;;;;5045969;28;20045;-90
2023/11/24 03:35:15;;;;;;;0.00;0.00;;;;;;;;;;5044113;28;20058;-90
2023/11/24 03:37:51;;;;;;;0.00;0.00;;;;;;;;;;5048183;28;20037;-89
2023/11/24 03:40:33;;;;;;;0.03;0.03;;;;;;;;;;5143493;22;20058;-89
2023/11/24 03:43:14;;;;;;;0.00;0.00;;;;;;;;;;5024037;28;20056;-90
2023/11/24 03:45:45;;;;;;;0.00;0.00;;;;;;;;;;5025359;28;20053;-90
2023/11/24 03:48:30;;;;;;;0.10;0.10;;;;;;;;;;5024066;28;20338;-89
2023/11/24 03:51:13;;;;;;;0.10;0.10;;;;;;;;;;5022796;28;20176;-90
2023/11/24 03:53:43;;;;;;;0.20;0.20;;;;;;;;;;5025015;28;20049;-90
2023/11/24 03:56:23;;;;;;;0.10;0.10;;;;;;;;;;5024180;28;20080;-89
2023/11/24 03:59:04;;;;;;;0.10;0.10;;;;;;;;;;5040093;28;20065;-88
2023/11/24 04:01:34;;;;;;;0.00;0.00;;;;;;;;;;5013592;28;20077;-89
2023/11/24 04:04:14;;;;;;;6.32;0.95;;;;;;;;;;5039326;28;20065;-89
2023/11/24 04:06:59;;;;;;;0.00;0.00;;;;;;;;;;5022603;28;20060;-88
2023/11/24 04:09:41;;;;;;;0.00;0.00;;;;;;;;;;5006798;28;20038;-90
2023/11/24 04:12:21;;;;;;;0.10;0.10;;;;;;;;;;5033917;28;20056;-90
2023/11/24 04:14:49;;;;;;;0.00;0.00;;;;;;;;;;5022549;28;20050;-89
2023/11/24 04:17:18;;;;;;;0.10;0.10;;;;;;;;;;5006603;28;20049;-91
2023/11/24 04:19:59;;;;;;;0.00;0.00;;;;;;;;;;5006205;28;20038;-90
2023/11/24 04:22:41;;;;;;;0.00;0.00;;;;;;;;;;5032232;28;20053;-89
2023/11/24 04:31:30;;;;;;;0.00;0.00;;;;;;;;;;5467625;22;20095;-89
2023/11/24 04:34:12;;;;;;;0.00;0.00;;;;;;;;;;5022697;28;20131;-89
2023/11/24 04:57:31;;;;;;;0.00;0.00;;;;;;;;;;5881623;22;20066;-90
2023/11/24 05:00:14;;;;;;;;;;;;;;;;;;4978862;28;20480;-88
2023/11/24 05:03:23;;;;;;;0.00;0.00;;;;;;;;;;5001378;28;19973;-88
2023/11/24 05:06:04;;;;;;;0.10;0.10;;;;;;;;;;4985802;28;20156;-89
2023/11/24 05:08:39;;;;;;;0.10;0.10;;;;;;;;;;4987126;28;20106;-89
2023/11/24 05:11:21;;;;;;;0.00;0.00;;;;;;;;;;4986795;28;20398;-90
2023/11/24 05:14:00;;;;;;;0.03;0.03;;;;;;;;;;5024626;28;20264;-88
2023/11/24 05:16:44;;;;;;;0.10;0.10;;;;;;;;;;5046881;28;20308;-90
2023/11/24 05:19:11;;;;;;;0.00;0.00;;;;;;;;;;5046077;28;20049;-90
2023/11/24 05:21:53;;;;;;;0.08;0.08;;;;;;;;;;5028213;28;20053;-89
2023/11/24 05:24:51;;;;;;;0.00;0.00;;;;;;;;;;5032822;28;20041;-88
2023/11/24 05:27:32;;;;;;;0.10;0.10;;;;;;;;;;5039893;28;20215;-91
2023/11/24 05:30:13;;;;;;;0.10;0.10;;;;;;;;;;5025793;28;20043;-90
2023/11/24 05:32:54;;;;;;;0.05;0.05;;;;;;;;;;5040347;28;20026;-90
2023/11/24 05:35:40;;;;;;;0.00;0.00;;;;;;;;;;5037500;28;20047;-90
2023/11/24 05:38:24;;;;;;;0.30;0.30;;;;;;;;;;5026870;28;20049;-90
2023/11/24 05:41:08;;;;;;;0.05;0.05;;;;;;;;;;5024941;28;20418;-89
2023/11/24 05:43:49;;;;;;;0.00;0.00;;;;;;;;;;5040952;28;20033;-89
2023/11/24 05:46:30;;;;;;;0.00;0.00;;;;;;;;;;5043025;28;20060;-90
2023/11/24 05:49:14;;;;;;;0.00;0.00;;;;;;;;;;5024640;28;20392;-89
2023/11/24 05:51:56;;;;;;;0.10;0.10;;;;;;;;;;5042513;28;20037;-89
2023/11/24 05:54:42;;;;;;;0.00;0.00;;;;;;;;;;5041846;28;20499;-89
2023/11/24 05:57:33;;;;;;;0.00;0.00;;;;;;;;;;5041466;28;20097;-89
2023/11/24 06:00:08;;;;;;;0.10;0.10;;;;;;;;;;5025440;28;20045;-89
2023/11/24 06:02:49;;;;;;;0.10;0.10;;;;;;;;;;5045896;28;20041;-89
2023/11/24 06:05:30;;;;;;;0.10;0.10;;;;;;;;;;5042261;28;20111;-89
2023/11/24 06:08:04;;;;;;;0.00;0.00;;;;;;;;;;5042642;28;20045;-89
2023/11/24 06:10:48;;;;;;;0.55;0.20;;;;;;;;;;5044699;28;20095;-89
2023/11/24 06:13:29;;;;;;;0.00;0.00;;;;;;;;;;5043694;28;20065;-89
2023/11/24 06:16:11;;;;;;;0.00;0.00;;;;;;;;;;5037266;28;20053;-89
2023/11/24 06:18:57;;;;;;;0.00;0.00;;;;;;;;;;5052530;23;20121;-88
2023/11/24 06:21:40;;;;;;;0.45;0.25;;;;;;;;;;5044070;28;20049;-89
2023/11/24 06:24:19;;;;;;;0.10;0.10;;;;;;;;;;5027706;28;20061;-89
2023/11/24 06:27:00;;;;;;;0.00;0.00;;;;;;;;;;5026964;28;20059;-90
2023/11/24 06:29:42;;;;;;;0.00;0.00;;;;;;;;;;5027233;28;20045;-90
2023/11/24 06:32:26;;;;;;;0.00;0.00;;;;;;;;;;5026462;28;20060;-89
2023/11/24 06:35:06;;;;;;;0.10;0.10;;;;;;;;;;5029889;28;20077;-90
2023/11/24 06:37:59;;;;;;;0.00;0.00;;;;;;;;;;5027981;28;20152;-89
2023/11/24 06:43:15;;;;;;;0.10;0.10;;;;;;;;;;5021204;28;20061;-90
2023/11/24 06:46:00;;;;;;;0.10;0.10;;;;;;;;;;5042947;28;20154;-89
2023/11/24 06:52:04;;;;;;;0.10;0.10;;;;;;;;;;5043902;28;20318;-89
2023/11/24 06:54:45;;;;;;;0.22;0.22;;;;;;;;;;5042066;28;20045;-89
2023/11/24 06:57:26;;;;;;;0.00;0.00;;;;;;;;;;5040929;28;20037;-89
2023/11/24 07:00:07;;;;;;;0.05;0.05;;;;;;;;;;5043235;28;20154;-90
2023/11/24 07:02:51;;;;;;;0.00;0.00;;;;;;;;;;5043050;28;20045;-90
2023/11/24 07:05:35;;;;;;;0.20;0.20;;;;;;;;;;5042589;28;20107;-90
2023/11/24 07:08:16;;;;;;;3.83;0.90;;;;;;;;;;5041421;28;20489;-90
2023/11/24 07:10:45;;;;;;;0.73;0.35;;;;;;;;;;5043966;28;20461;-89
2023/11/24 07:13:27;;;;;;;0.82;0.40;;;;;;;;;;5044142;28;20041;-88
2023/11/24 07:16:08;;;;;;;4.07;0.43;;;;;;;;;;5040975;28;20053;-89
2023/11/24 07:18:38;;;;;;;1.45;0.70;;;;;;;;;;5042178;28;20053;-89
2023/11/24 07:21:19;;;;;;;3.40;1.00;;;;;;;;;;5027207;28;20069;-89
2023/11/24 07:24:03;;;;;;;6.97;1.00;;;;;;;;;;5040761;28;20072;-89
2023/11/24 07:26:43;;;;;;;12.95;1.30;;;;;;;;;;5041850;28;20270;-89
2023/11/24 07:29:24;;;;;;;5.30;1.00;;;;;;;;;;5048549;28;20362;-89
2023/11/24 07:31:52;;;;;;;1.42;0.70;;;;;;;;;;5042331;28;20049;-89
2023/11/24 07:34:32;;;;;;;11.05;2.45;;;;;;;;;;5042043;28;20037;-90
2023/11/24 07:37:13;;;;;;;8.43;0.93;;;;;;;;;;5040661;28;20272;-90
2023/11/24 07:40:00;;;;;;;0.52;0.43;;;;;;;;;;5040780;28;20030;-90
2023/11/24 07:42:43;;;;;;;10.85;1.33;;;;;;;;;;5025487;28;20053;-89
2023/11/24 07:45:25;;;;;;;0.03;0.03;;;;;;;;;;5028762;28;20051;-90
2023/11/24 07:48:06;;;;;;;2.20;0.40;;;;;;;;;;5044257;28;20044;-89
2023/11/24 07:50:47;;;;;;;9.00;1.25;;;;;;;;;;5043156;28;20049;-90
2023/11/24 07:53:27;;;;;;;5.20;0.80;;;;;;;;;;5061710;22;20061;-90
2023/11/24 07:56:17;;;;;;;5.10;0.50;;;;;;;;;;5020873;28;20022;-89
2023/11/24 07:58:59;;;;;;;6.50;0.70;;;;;;;;;;5061602;28;20047;-89
2023/11/24 08:01:43;;;;;;;6.22;0.68;;;;;;;;;;5047466;22;20093;-89
2023/11/24 08:04:24;;;;;;;3.20;0.63;;;;;;;;;;5030551;28;20135;-89
2023/11/24 08:07:05;;;;;;;8.38;1.02;;;;;;;;;;5040800;28;20037;-89
2023/11/24 08:09:45;;;;;;;7.03;0.22;;;;;;;;;;5040930;28;20105;-89
2023/11/24 08:12:26;;;;;;;8.40;0.60;;;;;;;;;;5042334;28;20056;-88
2023/11/24 08:15:09;;;;;;;7.10;0.43;;;;;;;;;;5199156;22;20575;-89
2023/11/24 08:17:52;;;;;;;8.68;1.27;;;;;;;;;;5045961;28;20098;-88
2023/11/24 08:20:34;;;;;;;4.45;0.65;;;;;;;;;;5045316;28;20239;-88
2023/11/24 16:33:32;;;;;;;;;;;;;;;;;;;;;
2023/11/24 16:37:15;;;;;;;;;;;;;;;;;;;;;
2023/11/24 16:43:59;;;;;;;7.93;1.02;;;;;;;;;;4967874;28;20099;-92
2023/11/24 16:47:16;;;;;;;;;;;;;;;;;;;;;
2023/11/24 16:50:28;;;;;;;20.73;1.77;;;;;;;;;;4871398;29;20044;-91
2023/11/24 16:53:41;;;;;;;11.50;1.65;;;;;;;;;;4837109;29;20065;-91
2023/11/24 16:56:53;;;;;;;8.82;1.40;;;;;;;;;;4892453;28;20049;-92
2023/11/24 16:59:39;;;;;;;3.60;0.90;;;;;;;;;;4965798;28;20046;-92
2023/11/24 17:02:22;;;;;;;10.23;1.08;;;;;;;;;;5066650;28;20161;-91
2023/11/24 17:05:04;;;;;;;10.38;1.42;;;;;;;;;;5051945;28;20041;-91
2023/11/24 17:12:46;;;;;;;6.50;1.20;;;;;;;;;;5046570;28;20099;-91
2023/11/24 17:15:28;;;;;;;6.28;1.35;;;;;;;;;;5036592;28;20049;-92
2023/11/24 17:18:09;;;;;;;6.05;1.13;;;;;;;;;;5034659;28;20061;-91
2023/11/24 17:20:50;;;;;;;8.02;1.08;;;;;;;;;;5048843;28;20033;-92
2023/11/24 17:39:31;;;;;;;4.47;1.48;;;;;;;;;;5055516;22;20033;-92
2023/11/24 17:42:13;;;;;;;4.78;0.82;;;;;;;;;;5047193;28;20056;-92
2023/11/24 17:44:49;;;;;;;10.50;1.05;;;;;;;;;;5047957;28;20049;-91
2023/11/24 17:47:31;;;;;;;3.08;1.17;;;;;;;;;;5047742;28;20413;-91
2023/11/24 17:50:04;;;;;;;2.47;0.70;;;;;;;;;;5046327;28;20050;-91
2023/11/24 17:52:38;;;;;;;5.78;0.70;;;;;;;;;;5046141;28;20053;-91
2023/11/24 17:55:20;;;;;;;2.08;0.65;;;;;;;;;;5044219;28;20068;-93
2023/11/24 17:58:00;;;;;;;2.05;0.80;;;;;;;;;;5043988;28;20052;-92
2023/11/24 18:00:32;;;;;;;4.47;1.17;;;;;;;;;;5047583;28;20080;-93
2023/11/24 18:03:04;;;;;;;4.45;0.90;;;;;;;;;;5030299;28;20342;-91
2023/11/24 18:05:45;;;;;;;9.98;0.80;;;;;;;;;;5048349;28;20212;-91
2023/11/24 18:08:24;;;;;;;3.65;0.93;;;;;;;;;;5051219;28;20053;-92
2023/11/24 18:11:02;;;;;;;13.35;1.00;;;;;;;;;;5051197;28;20053;-92
2023/11/24 18:13:39;;;;;;;3.88;1.55;;;;;;;;;;5037117;28;20055;-92
2023/11/24 18:16:10;;;;;;;4.40;1.13;;;;;;;;;;5035524;28;20053;-92
2023/11/24 18:18:51;;;;;;;13.55;1.40;;;;;;;;;;5047740;28;20046;-92
2023/11/24 18:21:26;;;;;;;6.50;1.13;;;;;;;;;;5050751;28;20056;-92
2023/11/24 18:23:58;;;;;;;6.97;1.52;;;;;;;;;;5038740;28;20049;-92
2023/11/24 18:26:40;;;;;;;5.72;1.30;;;;;;;;;;5037423;28;20113;-93
2023/11/24 18:29:23;;;;;;;4.43;1.90;;;;;;;;;;5051237;28;20072;-91
2023/11/24 18:31:56;;;;;;;8.07;2.55;;;;;;;;;;5051631;28;20189;-93
2023/11/24 18:34:37;;;;;;;7.15;1.23;;;;;;;;;;5050716;28;20049;-91
2023/11/24 18:37:19;;;;;;;8.48;1.13;;;;;;;;;;5032105;28;20041;-91
2023/11/24 18:39:53;;;;;;;8.07;0.90;;;;;;;;;;5034222;28;20053;-92
2023/11/24 18:42:34;;;;;;;11.50;1.70;;;;;;;;;;5056494;28;20089;-94
2023/11/24 18:45:19;;;;;;;7.72;0.93;;;;;;;;;;5051278;28;20072;-92
2023/11/24 18:48:01;;;;;;;5.28;0.90;;;;;;;;;;5033646;28;20124;-91
2023/11/24 18:50:41;;;;;;;7.55;0.82;;;;;;;;;;5048488;28;20061;-91
2023/11/24 18:53:11;;;;;;;17.48;1.58;;;;;;;;;;5045467;28;20152;-91
2023/11/24 18:55:55;;;;;;;6.25;1.48;;;;;;;;;;5043219;28;20060;-92
2023/11/24 18:58:28;;;;;;;9.98;1.27;;;;;;;;;;5051061;28;20117;-91
2023/11/24 19:01:10;;;;;;;4.00;0.98;;;;;;;;;;5044529;28;20224;-91
2023/11/24 19:03:39;;;;;;;1.80;0.32;;;;;;;;;;5031030;28;20050;-91
2023/11/24 19:06:20;;;;;;;9.07;1.67;;;;;;;;;;5032023;28;20033;-91
2023/11/24 19:09:03;;;;;;;10.25;1.15;;;;;;;;;;5047395;28;20140;-91
2023/11/24 19:11:35;;;;;;;5.50;1.15;;;;;;;;;;5050580;28;20152;-92
2023/11/24 19:14:18;;;;;;;8.90;1.33;;;;;;;;;;5047863;28;20290;-92
2023/11/24 19:17:01;;;;;;;3.75;1.30;;;;;;;;;;5051760;28;20041;-90
2023/11/24 19:20:02;;;;;;;7.88;1.05;;;;;;;;;;5051232;28;20065;-91
2023/11/24 19:22:42;;;;;;;6.60;1.00;;;;;;;;;;5034721;28;20045;-92
2023/11/24 19:25:24;;;;;;;3.08;0.70;;;;;;;;;;5033305;28;20046;-91
2023/11/24 19:28:05;;;;;;;7.47;1.60;;;;;;;;;;5032711;28;20041;-89
2023/11/24 19:30:51;;;;;;;5.45;0.70;;;;;;;;;;5049838;28;20041;-92
2023/11/24 19:36:07;;;;;;;9.40;1.25;;;;;;;;;;5046573;28;19921;-90
2023/11/24 19:38:48;;;;;;;5.55;1.45;;;;;;;;;;5048205;28;20045;-90
2023/11/24 19:41:29;;;;;;;6.97;1.10;;;;;;;;;;5049049;28;20046;-91
2023/11/24 19:44:13;;;;;;;11.38;1.60;;;;;;;;;;5031740;28;20057;-92
2023/11/24 19:46:56;;;;;;;2.45;0.73;;;;;;;;;;5034793;28;20101;-92
2023/11/24 19:49:40;;;;;;;6.80;0.82;;;;;;;;;;5034497;28;20045;-90
2023/11/24 19:52:22;;;;;;;2.58;1.00;;;;;;;;;;5034730;28;20072;-92
2023/11/24 19:55:03;;;;;;;5.93;0.90;;;;;;;;;;5048228;28;20033;-91
2023/11/24 19:57:48;;;;;;;6.10;1.17;;;;;;;;;;5048647;28;20302;-91
2023/11/24 20:00:30;;;;;;;7.50;1.13;;;;;;;;;;5035066;28;20099;-91
2023/11/24 20:03:12;;;;;;;7.50;0.90;;;;;;;;;;5034410;28;20029;-91
2023/11/24 20:05:53;;;;;;;11.77;0.82;;;;;;;;;;5050167;28;20041;-91
2023/11/24 20:08:42;;;;;;;5.80;1.40;;;;;;;;;;5036717;28;20042;-93
2023/11/24 20:11:23;;;;;;;3.80;1.00;;;;;;;;;;5052407;28;20030;-92
2023/11/24 20:14:14;;;;;;;4.75;0.95;;;;;;;;;;5049522;28;20049;-92
2023/11/24 20:17:18;;;;;;;4.90;0.70;;;;;;;;;;5037820;28;20052;-91
2023/11/24 20:20:01;;;;;;;5.13;0.90;;;;;;;;;;5034969;28;20111;-91
2023/11/24 20:22:43;;;;;;;4.88;0.68;;;;;;;;;;5050997;28;20049;-90
2023/11/24 20:25:24;;;;;;;2.55;0.60;;;;;;;;;;5071045;28;20083;-91
2023/11/24 20:28:07;;;;;;;2.53;0.63;;;;;;;;;;5068015;28;20044;-91
2023/11/24 20:30:48;;;;;;;6.45;1.17;;;;;;;;;;5052644;28;20366;-91
2023/11/24 20:33:23;;;;;;;7.63;1.00;;;;;;;;;;5053316;28;20119;-91
2023/11/24 20:36:05;;;;;;;9.93;0.95;;;;;;;;;;5033294;28;20166;-92
2023/11/24 20:38:49;;;;;;;3.00;0.50;;;;;;;;;;5035823;28;20116;-91
2023/11/24 20:41:34;;;;;;;6.10;0.70;;;;;;;;;;5050239;28;20064;-91
2023/11/24 20:44:22;;;;;;;5.18;0.90;;;;;;;;;;5050676;28;20013;-92
2023/11/24 20:46:59;;;;;;;5.13;1.00;;;;;;;;;;5051054;28;20053;-92
2023/11/24 20:49:29;;;;;;;4.93;1.00;;;;;;;;;;5050549;28;20080;-93
2023/11/24 20:51:59;;;;;;;4.25;1.35;;;;;;;;;;5048126;28;20050;-92
2023/11/24 20:54:43;;;;;;;11.07;1.00;;;;;;;;;;5048176;28;20064;-91
2023/11/24 20:57:26;;;;;;;4.03;0.88;;;;;;;;;;5032004;28;20044;-92
2023/11/24 21:00:10;;;;;;;3.60;0.73;;;;;;;;;;5034657;28;20026;-92
2023/11/24 21:02:45;;;;;;;5.13;1.13;;;;;;;;;;5033781;28;20072;-91
2023/11/24 21:05:30;;;;;;;2.75;0.85;;;;;;;;;;5036690;28;20032;-92
2023/11/24 21:09:03;;;;;;;;;;;;;;;;;;;;;
2023/11/24 21:11:51;;;;;;;1.30;0.40;;;;;;;;;;5048124;28;20057;-91
2023/11/24 21:14:34;;;;;;;5.82;0.70;;;;;;;;;;5051636;28;20060;-92
2023/11/24 21:18:03;;;;;;;11.07;1.33;;;;;;;;;;5050381;28;20060;-94
2023/11/24 21:20:47;;;;;;;9.60;1.10;;;;;;;;;;5033667;28;20061;-92
2023/11/24 21:23:51;;;;;;;11.88;0.82;;;;;;;;;;5052942;28;20018;-93
2023/11/24 21:26:41;;;;;;;6.45;1.13;;;;;;;;;;5052354;28;20051;-92
2023/11/24 21:29:23;;;;;;;2.97;1.00;;;;;;;;;;5039717;28;20029;-90
2023/11/24 21:32:09;;;;;;;5.97;0.93;;;;;;;;;;5051591;28;20081;-92
2023/11/24 21:34:47;;;;;;;10.13;1.30;;;;;;;;;;5043620;28;20057;-92
2023/11/24 21:37:29;;;;;;;5.75;0.82;;;;;;;;;;5053237;28;20083;-91
2023/11/24 21:40:13;;;;;;;6.13;0.70;;;;;;;;;;5066002;28;20496;-90
2023/11/24 21:42:54;;;;;;;14.48;2.03;;;;;;;;;;5065610;28;20076;-89
2023/11/24 21:45:30;;;;;;;11.65;1.52;;;;;;;;;;5049678;28;20049;-91
2023/11/24 21:48:12;;;;;;;6.03;0.85;;;;;;;;;;5049196;28;20049;-91
2023/11/24 21:50:52;;;;;;;6.25;1.27;;;;;;;;;;5053667;28;20063;-91
2023/11/24 21:53:24;;;;;;;15.13;1.95;;;;;;;;;;5052876;28;20080;-91
2023/11/24 21:56:05;;;;;;;8.35;1.20;;;;;;;;;;5066615;28;20052;-92
2023/11/24 21:58:46;;;;;;;4.15;0.90;;;;;;;;;;5051013;28;20052;-92
2023/11/24 22:01:22;;;;;;;9.02;1.60;;;;;;;;;;5049220;28;20049;-92
2023/11/24 22:04:03;;;;;;;14.23;2.33;;;;;;;;;;5064280;28;20175;-91
2023/11/24 22:06:47;;;;;;;4.43;2.05;;;;;;;;;;5067698;28;20053;-92
2023/11/24 22:09:24;;;;;;;4.85;1.70;;;;;;;;;;5066312;28;20260;-92
2023/11/24 22:12:06;;;;;;;1.40;0.77;;;;;;;;;;5064788;28;20491;-91
2023/11/24 22:14:40;;;;;;;5.57;1.17;;;;;;;;;;5066134;28;20049;-91
2023/11/24 22:17:22;;;;;;;10.45;1.10;;;;;;;;;;5048031;28;20069;-91
2023/11/24 22:19:51;;;;;;;5.93;1.02;;;;;;;;;;5065412;28;20190;-91
2023/11/24 22:22:31;;;;;;;14.02;2.63;;;;;;;;;;5052966;28;20076;-93
2023/11/24 22:25:17;;;;;;;14.27;3.28;;;;;;;;;;5065918;28;20110;-93
2023/11/24 22:27:58;;;;;;;11.18;3.55;;;;;;;;;;5051417;28;20069;-91
2023/11/24 22:30:40;;;;;;;15.98;3.25;;;;;;;;;;5065075;28;20053;-90
2023/11/24 22:33:18;;;;;;;11.02;2.65;;;;;;;;;;5050676;28;20072;-92
2023/11/24 22:36:03;;;;;;;4.63;1.83;;;;;;;;;;5044566;28;20057;-91
2023/11/24 22:38:44;;;;;;;10.40;1.70;;;;;;;;;;5060365;28;20056;-91
2023/11/24 22:41:25;;;;;;;14.75;2.30;;;;;;;;;;5046991;28;20080;-91
2023/11/24 22:44:13;;;;;;;5.13;0.95;;;;;;;;;;5049288;28;20052;-91
2023/11/24 22:53:06;;;;;;;5.25;0.82;;;;;;;;;;5050592;28;20055;-92
2023/11/24 22:55:37;;;;;;;6.28;1.15;;;;;;;;;;5050233;28;20045;-92
2023/11/24 22:58:20;;;;;;;12.55;1.17;;;;;;;;;;5051200;28;20048;-91
2023/11/24 23:01:04;;;;;;;2.13;0.93;;;;;;;;;;5050219;28;20079;-92
2023/11/24 23:03:53;;;;;;;4.82;0.60;;;;;;;;;;5061907;28;20105;-91
2023/11/24 23:06:23;;;;;;;5.80;1.17;;;;;;;;;;5049646;28;20261;-92
2023/11/24 23:08:52;;;;;;;4.65;1.23;;;;;;;;;;5065156;28;20081;-92
2023/11/24 23:11:33;;;;;;;3.15;1.00;;;;;;;;;;5064162;28;20050;-92
2023/11/24 23:14:02;;;;;;;3.45;1.02;;;;;;;;;;5052019;28;20042;-92
2023/11/24 23:16:38;;;;;;;7.10;0.70;;;;;;;;;;5051795;28;20033;-92
2023/11/24 23:19:06;;;;;;;8.07;0.73;;;;;;;;;;5055541;28;20043;-92
2023/11/24 23:21:47;;;;;;;4.57;0.65;;;;;;;;;;5052551;28;20025;-92
2023/11/24 23:24:28;;;;;;;0.95;0.60;;;;;;;;;;5050366;28;20057;-91
2023/11/24 23:27:13;;;;;;;8.20;0.40;;;;;;;;;;5050340;28;20037;-91
2023/11/24 23:29:54;;;;;;;4.68;1.15;;;;;;;;;;5049070;28;20072;-90
2023/11/24 23:32:37;;;;;;;4.38;1.00;;;;;;;;;;5050283;28;20057;-92
2023/11/24 23:35:18;;;;;;;9.82;0.80;;;;;;;;;;5046048;28;20053;-92
2023/11/24 23:37:59;;;;;;;6.22;0.90;;;;;;;;;;5049412;28;20049;-92
2023/11/24 23:40:31;;;;;;;4.57;0.88;;;;;;;;;;5049904;28;20056;-93
2023/11/24 23:43:12;;;;;;;4.95;0.90;;;;;;;;;;5050847;28;20084;-91
2023/11/24 23:45:56;;;;;;;9.82;0.88;;;;;;;;;;5048640;28;20064;-91
2023/11/24 23:48:38;;;;;;;5.85;0.95;;;;;;;;;;5066511;28;20041;-91
2023/11/24 23:51:20;;;;;;;10.07;1.50;;;;;;;;;;5064545;28;20077;-91
2023/11/24 23:53:54;;;;;;;7.50;1.00;;;;;;;;;;5069322;28;20073;-92
2023/11/24 23:56:30;;;;;;;8.40;0.82;;;;;;;;;;5056045;28;20054;-92
2023/11/24 23:59:29;;;;;;;3.50;0.80;;;;;;;;;;5059609;28;20064;-92
